createdAt,value
2023-05-21T00:01:07.549Z,69.53
2023-05-21T00:03:14.178Z,69.47
2023-05-21T00:05:18.456Z,69.32
2023-05-21T00:07:21.870Z,69.44
2023-05-21T00:09:25.471Z,69.67
2023-05-21T00:11:28.696Z,69.73
2023-05-21T00:13:32.015Z,69.65
2023-05-21T00:15:35.356Z,69.73
2023-05-21T00:17:40.279Z,69.86
2023-05-21T00:19:43.719Z,69.89
2023-05-21T00:21:46.987Z,70.02
2023-05-21T00:23:50.387Z,70.01
2023-05-21T00:25:53.857Z,70.05
2023-05-21T00:27:57.170Z,70.29
2023-05-21T00:30:00.393Z,70.45
2023-05-21T00:32:03.682Z,70.63
2023-05-21T00:34:08.413Z,70.53
2023-05-21T00:36:14.405Z,70.47
2023-05-21T00:38:19.083Z,70.60
2023-05-21T00:40:22.590Z,70.58
2023-05-21T00:42:27.369Z,70.83
2023-05-21T00:44:34.186Z,70.87
2023-05-21T00:46:38.146Z,70.98
2023-05-21T00:48:41.559Z,70.81
2023-05-21T00:50:46.542Z,70.91
2023-05-21T00:52:50.292Z,71.04
2023-05-21T00:54:54.076Z,70.96
2023-05-21T00:56:58.111Z,71.01
2023-05-21T00:59:05.554Z,71.21
2023-05-21T01:01:14.146Z,71.17
2023-05-21T01:03:18.144Z,71.12
2023-05-21T01:05:22.346Z,70.98
2023-05-21T01:07:27.050Z,71.15
2023-05-21T01:09:30.462Z,71.33
2023-05-21T01:11:39.814Z,71.34
2023-05-21T01:13:44.192Z,71.19
2023-05-21T01:15:48.768Z,71.17
2023-05-21T01:17:53.268Z,71.30
2023-05-21T01:19:58.874Z,71.34
2023-05-21T01:22:04.950Z,71.31
2023-05-21T01:24:09.748Z,71.30
2023-05-21T01:26:13.306Z,71.50
2023-05-21T01:28:16.542Z,71.59
2023-05-21T01:30:21.290Z,71.69
2023-05-21T01:32:31.083Z,71.67
2023-05-21T01:34:40.620Z,71.61
2023-05-21T01:36:50.620Z,71.61
2023-05-21T01:38:58.917Z,71.53
2023-05-21T01:41:04.865Z,71.68
2023-05-21T01:43:09.485Z,71.64
2023-05-21T01:45:15.791Z,71.64
2023-05-21T01:47:19.976Z,71.52
2023-05-21T01:49:24.063Z,71.64
2023-05-21T01:51:28.286Z,71.87
2023-05-21T01:53:31.738Z,72.01
2023-05-21T01:55:39.539Z,71.92
2023-05-21T01:57:44.704Z,72.02
2023-05-21T01:59:48.153Z,72.12
2023-05-21T02:01:51.462Z,72.31
2023-05-21T02:03:54.897Z,72.58
2023-05-21T02:05:58.340Z,72.48
2023-05-21T02:08:02.475Z,72.52
2023-05-21T02:10:06.716Z,72.73
2023-05-21T02:12:09.948Z,72.87
2023-05-21T02:14:15.156Z,73.00
2023-05-21T02:16:19.761Z,73.06
2023-05-21T02:18:23.355Z,72.99
2023-05-21T02:20:26.637Z,73.27
2023-05-21T02:22:30.222Z,73.36
2023-05-21T02:24:33.454Z,73.40
2023-05-21T02:26:37.411Z,73.43
2023-05-21T02:28:40.754Z,73.51
2023-05-21T02:30:45.412Z,73.44
2023-05-21T02:32:50.820Z,73.57
2023-05-21T02:34:54.269Z,73.63
2023-05-21T02:36:58.863Z,73.82
2023-05-21T02:39:02.074Z,73.78
2023-05-21T02:41:05.675Z,73.88
2023-05-21T02:43:08.911Z,74.01
2023-05-21T02:45:12.912Z,73.90
2023-05-21T02:47:20.912Z,74.09
2023-05-21T02:49:24.125Z,74.32
2023-05-21T02:51:27.482Z,74.33
2023-05-21T02:53:31.171Z,74.53
2023-05-21T02:55:34.645Z,74.61
2023-05-21T02:57:38.375Z,74.86
2023-05-21T02:59:41.613Z,74.88
2023-05-21T03:01:45.282Z,74.89
2023-05-21T03:03:50.180Z,75.16
2023-05-21T03:05:53.443Z,75.09
2023-05-21T03:07:56.748Z,75.27
2023-05-21T03:10:00.094Z,75.35
2023-05-21T03:12:03.489Z,75.38
2023-05-21T03:14:07.501Z,75.62
2023-05-21T03:16:11.061Z,75.62
2023-05-21T03:18:14.489Z,75.79
2023-05-21T03:20:19.134Z,75.89
2023-05-21T03:22:22.370Z,75.97
2023-05-21T03:24:26.349Z,75.89
2023-05-21T03:26:29.786Z,75.94
2023-05-21T03:28:34.725Z,76.05
2023-05-21T03:30:38.414Z,75.98
2023-05-21T03:33:09.642Z,76.09
2023-05-21T03:35:13.077Z,76.15
2023-05-21T03:37:17.786Z,76.22
2023-05-21T03:39:21.068Z,76.23
2023-05-21T03:41:25.069Z,76.19
2023-05-21T03:43:33.385Z,76.28
2023-05-21T03:45:36.784Z,76.42
2023-05-21T03:48:19.186Z,76.49
2023-05-21T03:50:23.002Z,76.62
2023-05-21T03:52:27.942Z,76.60
2023-05-21T03:54:31.756Z,76.65
2023-05-21T03:56:39.505Z,76.70
2023-05-21T03:58:42.788Z,76.72
2023-05-21T04:00:46.168Z,76.74
2023-05-21T04:02:49.519Z,76.77
2023-05-21T04:04:56.022Z,76.89
2023-05-21T04:06:59.680Z,76.94
2023-05-21T04:09:04.858Z,77.01
2023-05-21T04:11:08.233Z,77.09
2023-05-21T04:13:12.260Z,77.00
2023-05-21T04:15:18.831Z,77.10
2023-05-21T04:17:22.411Z,77.15
2023-05-21T04:19:26.769Z,77.28
2023-05-21T04:21:32.051Z,77.15
2023-05-21T04:23:37.505Z,77.07
2023-05-21T04:25:51.054Z,77.06
2023-05-21T04:27:54.820Z,77.02
2023-05-21T04:29:59.167Z,76.92
2023-05-21T04:32:02.380Z,76.73
2023-05-21T04:34:06.422Z,76.75
2023-05-21T04:36:11.526Z,76.57
2023-05-21T04:38:19.669Z,76.51
2023-05-21T04:40:24.398Z,76.51
2023-05-21T04:42:30.071Z,76.47
2023-05-21T04:44:33.792Z,76.35
2023-05-21T04:46:39.672Z,76.40
2023-05-21T04:48:45.159Z,76.37
2023-05-21T04:50:49.063Z,76.22
2023-05-21T04:52:54.804Z,76.28
2023-05-21T04:54:58.019Z,76.25
2023-05-21T04:57:01.275Z,76.19
2023-05-21T04:59:06.541Z,76.11
2023-05-21T05:01:10.861Z,75.93
2023-05-21T05:03:14.720Z,75.97
2023-05-21T05:05:19.924Z,75.88
2023-05-21T05:07:23.922Z,75.88
2023-05-21T05:09:27.333Z,75.79
2023-05-21T05:11:30.522Z,75.69
2023-05-21T05:13:35.414Z,75.47
2023-05-21T05:15:40.443Z,75.27
2023-05-21T05:17:45.028Z,75.13
2023-05-21T05:19:49.660Z,75.09
2023-05-21T05:21:52.897Z,74.82
2023-05-21T05:23:56.716Z,74.79
2023-05-21T05:26:03.693Z,74.76
2023-05-21T05:28:06.944Z,75.01
2023-05-21T05:30:11.096Z,74.88
2023-05-21T05:32:15.868Z,74.72
2023-05-21T05:34:20.009Z,74.48
2023-05-21T05:36:24.594Z,74.45
2023-05-21T05:38:28.983Z,74.37
2023-05-21T05:40:32.281Z,74.15
2023-05-21T05:42:35.868Z,74.23
2023-05-21T05:44:46.021Z,73.96
2023-05-21T05:46:49.317Z,74.19
2023-05-21T05:48:54.602Z,73.70
2023-05-21T05:50:57.834Z,73.44
2023-05-21T05:53:02.604Z,73.15
2023-05-21T05:55:09.046Z,73.21
2023-05-21T05:57:12.544Z,73.18
2023-05-21T05:59:16.497Z,72.97
2023-05-21T06:01:24.841Z,72.75
2023-05-21T06:03:29.572Z,72.74
2023-05-21T06:05:35.432Z,72.64
2023-05-21T06:07:39.562Z,72.84
2023-05-21T06:09:42.894Z,72.71
2023-05-21T06:11:46.180Z,72.58
2023-05-21T06:13:49.799Z,72.39
2023-05-21T06:15:54.377Z,72.31
2023-05-21T06:17:57.705Z,72.13
2023-05-21T06:20:01.000Z,72.14
2023-05-21T06:22:06.679Z,71.94
2023-05-21T06:24:09.954Z,72.20
2023-05-21T06:26:13.222Z,71.89
2023-05-21T06:28:17.775Z,71.91
2023-05-21T06:30:21.152Z,71.55
2023-05-21T06:32:26.236Z,71.56
2023-05-21T06:34:29.590Z,70.98
2023-05-21T06:36:32.941Z,70.91
2023-05-21T06:38:37.739Z,70.63
2023-05-21T06:40:40.964Z,70.27
2023-05-21T06:42:48.781Z,70.31
2023-05-21T06:44:58.332Z,69.79
2023-05-21T06:47:07.737Z,69.67
2023-05-21T06:49:14.417Z,69.62
2023-05-21T06:51:18.991Z,69.72
2023-05-21T06:53:22.237Z,69.53
2023-05-21T06:55:26.954Z,69.73
2023-05-21T06:57:48.650Z,69.38
2023-05-21T06:59:52.024Z,69.76
2023-05-21T07:01:55.338Z,69.37
2023-05-21T07:03:59.320Z,69.16
2023-05-21T07:06:02.564Z,68.59
2023-05-21T07:08:05.897Z,68.45
2023-05-21T07:10:10.376Z,68.33
2023-05-21T07:12:16.153Z,68.37
2023-05-21T07:14:19.621Z,68.55
2023-05-21T07:16:22.910Z,67.76
2023-05-21T07:18:26.589Z,67.63
2023-05-21T07:20:29.842Z,67.28
2023-05-21T07:22:38.200Z,67.06
2023-05-21T07:24:41.883Z,67.15
2023-05-21T07:26:45.247Z,66.65
2023-05-21T07:28:50.466Z,66.69
2023-05-21T07:30:53.787Z,66.97
2023-05-21T07:33:04.000Z,66.57
2023-05-21T07:35:08.092Z,66.73
2023-05-21T07:37:11.494Z,66.59
2023-05-21T07:39:15.442Z,66.24
2023-05-21T07:41:19.209Z,66.44
2023-05-21T07:43:24.237Z,66.15
2023-05-21T07:45:29.013Z,65.97
2023-05-21T07:47:32.750Z,66.30
2023-05-21T07:49:36.298Z,66.37
2023-05-21T07:51:39.663Z,66.36
2023-05-21T07:53:43.177Z,66.00
2023-05-21T07:55:49.037Z,65.48
2023-05-21T07:57:56.387Z,65.39
2023-05-21T08:00:06.917Z,65.32
2023-05-21T08:02:20.737Z,64.66
2023-05-21T08:04:24.593Z,64.42
2023-05-21T08:06:28.377Z,64.02
2023-05-21T08:08:31.643Z,64.31
2023-05-21T08:10:35.105Z,63.58
2023-05-21T08:12:38.387Z,62.80
2023-05-21T08:14:43.183Z,62.88
2023-05-21T08:16:48.223Z,62.96
2023-05-21T08:18:53.214Z,63.09
2023-05-21T08:20:56.782Z,62.76
2023-05-21T08:23:01.486Z,62.13
2023-05-21T08:25:10.952Z,62.47
2023-05-21T08:27:16.194Z,61.90
2023-05-21T08:29:19.595Z,62.21
2023-05-21T08:31:23.565Z,61.54
2023-05-21T08:33:27.847Z,61.99
2023-05-21T08:35:32.592Z,61.34
2023-05-21T08:37:50.863Z,60.88
2023-05-21T08:40:02.097Z,61.30
2023-05-21T08:42:32.888Z,61.39
2023-05-21T08:44:47.152Z,61.47
2023-05-21T08:46:51.955Z,61.54
2023-05-21T08:48:56.283Z,61.54
2023-05-21T08:51:02.777Z,61.75
2023-05-21T08:53:23.364Z,61.09
2023-05-21T08:55:32.613Z,60.92
2023-05-21T08:57:36.220Z,60.84
2023-05-21T08:59:44.185Z,60.89
2023-05-21T09:01:57.813Z,60.33
2023-05-21T09:04:19.693Z,60.44
2023-05-21T09:06:28.353Z,60.32
2023-05-21T09:08:36.512Z,60.02
2023-05-21T09:10:51.323Z,60.30
2023-05-21T09:12:57.093Z,60.59
2023-05-21T09:15:01.513Z,60.76
2023-05-21T09:17:09.251Z,60.66
2023-05-21T09:19:12.609Z,60.92
2023-05-21T09:21:27.941Z,60.65
2023-05-21T09:23:42.104Z,60.92
2023-05-21T09:25:47.491Z,60.68
2023-05-21T09:27:57.652Z,60.53
2023-05-21T09:30:01.300Z,60.62
2023-05-21T09:32:08.353Z,60.68
2023-05-21T09:34:15.270Z,61.02
2023-05-21T09:36:21.319Z,60.94
2023-05-21T09:38:27.012Z,61.17
2023-05-21T09:40:30.724Z,61.06
2023-05-21T09:42:34.447Z,61.03
2023-05-21T09:44:37.762Z,60.82
2023-05-21T09:46:42.092Z,60.91
2023-05-21T09:48:45.806Z,60.42
2023-05-21T09:50:51.691Z,60.27
2023-05-21T09:52:55.949Z,60.42
2023-05-21T09:55:01.550Z,60.21
2023-05-21T09:57:05.076Z,60.49
2023-05-21T09:59:08.851Z,60.29
2023-05-21T10:01:12.505Z,60.40
2023-05-21T10:03:17.914Z,60.59
2023-05-21T10:05:21.984Z,60.09
2023-05-21T10:07:27.260Z,60.01
2023-05-21T10:09:31.414Z,59.80
2023-05-21T10:11:37.128Z,59.68
2023-05-21T10:13:46.065Z,58.85
2023-05-21T10:15:56.875Z,58.28
2023-05-21T10:18:01.569Z,57.87
2023-05-21T10:20:07.321Z,58.01
2023-05-21T10:22:11.332Z,58.15
2023-05-21T10:24:15.404Z,57.95
2023-05-21T10:26:20.682Z,57.62
2023-05-21T10:28:25.905Z,57.37
2023-05-21T10:30:29.497Z,57.56
2023-05-21T10:32:33.362Z,57.14
2023-05-21T10:34:38.954Z,56.83
2023-05-21T10:36:42.929Z,56.69
2023-05-21T10:38:46.759Z,56.50
2023-05-21T10:40:50.623Z,56.41
2023-05-21T10:43:13.917Z,55.99
2023-05-21T10:45:28.164Z,55.54
2023-05-21T10:47:51.526Z,55.17
2023-05-21T10:50:20.926Z,54.64
2023-05-21T10:52:39.847Z,55.30
2023-05-21T10:55:11.238Z,55.42
2023-05-21T10:57:26.391Z,55.40
2023-05-21T10:59:41.289Z,54.89
2023-05-21T11:01:46.362Z,54.87
2023-05-21T11:03:50.046Z,54.70
2023-05-21T11:05:55.289Z,54.63
2023-05-21T11:07:58.898Z,54.78
2023-05-21T11:10:34.012Z,55.08
2023-05-21T11:12:57.909Z,54.96
2023-05-21T11:15:01.156Z,54.81
2023-05-21T11:17:12.413Z,54.38
2023-05-21T11:19:19.148Z,54.28
2023-05-21T11:21:26.270Z,53.93
2023-05-21T11:23:50.271Z,54.22
2023-05-21T11:26:02.251Z,54.03
2023-05-21T11:28:09.577Z,53.71
2023-05-21T11:30:17.575Z,53.36
2023-05-21T11:32:24.238Z,53.51
2023-05-21T11:34:29.360Z,53.38
2023-05-21T11:36:34.056Z,53.13
2023-05-21T11:38:39.210Z,53.54
2023-05-21T11:40:54.737Z,53.11
2023-05-21T11:42:58.473Z,52.85
2023-05-21T11:45:03.984Z,53.11
2023-05-21T11:47:10.175Z,53.07
2023-05-21T11:49:16.159Z,52.64
2023-05-21T11:51:19.531Z,52.34
2023-05-21T11:53:25.106Z,52.35
2023-05-21T11:55:29.628Z,51.89
2023-05-21T11:57:32.858Z,52.57
2023-05-21T11:59:36.486Z,52.75
2023-05-21T12:01:39.739Z,53.10
2023-05-21T12:03:43.388Z,52.48
2023-05-21T12:05:48.683Z,52.43
2023-05-21T12:07:52.164Z,52.24
2023-05-21T12:09:55.781Z,52.18
2023-05-21T12:11:59.227Z,52.70
2023-05-21T12:14:02.557Z,52.33
2023-05-21T12:16:07.177Z,52.17
2023-05-21T12:18:11.487Z,52.23
2023-05-21T12:20:16.669Z,52.10
2023-05-21T12:22:22.028Z,51.70
2023-05-21T12:24:25.455Z,52.22
2023-05-21T12:26:28.984Z,52.45
2023-05-21T12:28:32.620Z,52.39
2023-05-21T12:30:36.192Z,51.76
2023-05-21T12:32:44.221Z,51.92
2023-05-21T12:34:48.832Z,51.57
2023-05-21T12:36:52.174Z,51.17
2023-05-21T12:38:57.686Z,51.66
2023-05-21T12:41:05.195Z,51.54
2023-05-21T12:43:08.580Z,50.97
2023-05-21T12:45:12.809Z,50.98
2023-05-21T12:47:16.392Z,50.73
2023-05-21T12:49:32.521Z,50.75
2023-05-21T12:51:41.710Z,49.94
2023-05-21T12:53:45.053Z,49.54
2023-05-21T12:55:49.981Z,49.10
2023-05-21T12:58:02.820Z,48.05
2023-05-21T13:00:07.809Z,48.01
2023-05-21T13:02:15.699Z,47.91
2023-05-21T13:04:20.790Z,47.99
2023-05-21T13:06:26.470Z,47.97
2023-05-21T13:08:30.213Z,47.64
2023-05-21T13:10:33.805Z,48.57
2023-05-21T13:12:38.433Z,47.68
2023-05-21T13:14:41.828Z,46.90
2023-05-21T13:16:48.052Z,47.41
2023-05-21T13:18:51.378Z,47.10
2023-05-21T13:20:54.696Z,47.21
2023-05-21T13:22:58.154Z,46.42
2023-05-21T13:25:01.504Z,47.02
2023-05-21T13:27:05.036Z,46.96
2023-05-21T13:29:09.975Z,46.38
2023-05-21T13:31:15.765Z,46.91
2023-05-21T13:33:21.975Z,47.72
2023-05-21T13:35:25.216Z,46.26
2023-05-21T13:37:28.462Z,45.63
2023-05-21T13:39:31.690Z,45.89
2023-05-21T13:41:35.011Z,45.09
2023-05-21T13:43:38.288Z,45.12
2023-05-21T13:45:43.874Z,45.05
2023-05-21T13:47:48.308Z,44.21
2023-05-21T13:49:52.091Z,44.14
2023-05-21T13:51:55.356Z,44.59
2023-05-21T13:53:58.602Z,44.57
2023-05-21T13:56:02.229Z,44.63
2023-05-21T13:58:05.660Z,44.33
2023-05-21T14:00:12.705Z,44.76
2023-05-21T14:02:17.789Z,44.53
2023-05-21T14:04:21.724Z,44.85
2023-05-21T14:06:24.988Z,44.59
2023-05-21T14:08:29.512Z,45.08
2023-05-21T14:10:32.776Z,45.26
2023-05-21T14:12:35.944Z,45.18
2023-05-21T14:14:39.209Z,45.05
2023-05-21T14:16:42.707Z,45.30
2023-05-21T14:18:47.457Z,44.98
2023-05-21T14:20:50.755Z,45.31
2023-05-21T14:22:54.003Z,44.93
2023-05-21T14:24:57.221Z,44.58
2023-05-21T14:27:00.416Z,44.54
2023-05-21T14:29:03.883Z,44.74
2023-05-21T14:31:07.757Z,44.53
2023-05-21T14:33:11.433Z,43.64
2023-05-21T14:35:16.206Z,43.76
2023-05-21T14:37:19.414Z,43.74
2023-05-21T14:39:22.638Z,44.01
2023-05-21T14:41:26.579Z,44.22
2023-05-21T14:43:29.852Z,44.30
2023-05-21T14:45:35.484Z,44.69
2023-05-21T14:47:38.812Z,45.06
2023-05-21T14:49:42.096Z,44.68
2023-05-21T14:51:47.615Z,45.00
2023-05-21T14:53:50.930Z,45.13
2023-05-21T14:55:55.162Z,45.00
2023-05-21T14:57:58.478Z,45.61
2023-05-21T15:00:01.835Z,45.83
2023-05-21T15:02:07.319Z,45.57
2023-05-21T15:04:10.753Z,45.67
2023-05-21T15:06:14.240Z,45.53
2023-05-21T15:08:18.939Z,45.97
2023-05-21T15:10:22.140Z,45.71
2023-05-21T15:12:25.787Z,45.94
2023-05-21T15:14:29.273Z,46.29
2023-05-21T15:16:32.628Z,46.43
2023-05-21T15:18:35.847Z,47.13
2023-05-21T15:20:39.134Z,47.16
2023-05-21T15:22:42.418Z,47.11
2023-05-21T15:24:47.157Z,46.99
2023-05-21T15:26:50.567Z,47.61
2023-05-21T15:28:54.029Z,47.88
2023-05-21T15:30:57.279Z,47.53
2023-05-21T15:33:00.733Z,48.03
2023-05-21T15:35:04.068Z,48.02
2023-05-21T15:37:07.598Z,48.33
2023-05-21T15:39:10.884Z,48.14
2023-05-21T15:41:15.509Z,48.33
2023-05-21T15:43:18.865Z,48.51
2023-05-21T15:45:22.128Z,49.09
2023-05-21T15:47:25.328Z,49.05
2023-05-21T15:49:28.731Z,49.18
2023-05-21T15:51:32.072Z,49.35
2023-05-21T15:53:35.363Z,49.45
2023-05-21T15:55:38.975Z,49.47
2023-05-21T15:57:43.841Z,49.38
2023-05-21T15:59:47.461Z,49.63
2023-05-21T16:01:50.724Z,49.42
2023-05-21T16:03:53.979Z,49.28
2023-05-21T16:05:57.403Z,49.08
2023-05-21T16:08:00.747Z,48.98
2023-05-21T16:10:04.151Z,49.14
2023-05-21T16:12:08.040Z,49.24
2023-05-21T16:14:12.934Z,48.97
2023-05-21T16:16:16.319Z,48.92
2023-05-21T16:18:19.535Z,49.16
2023-05-21T16:20:22.888Z,49.35
2023-05-21T16:22:26.214Z,49.43
2023-05-21T16:24:29.516Z,49.57
2023-05-21T16:26:32.792Z,49.60
2023-05-21T16:28:37.569Z,49.54
2023-05-21T16:30:42.418Z,49.69
2023-05-21T16:32:45.684Z,49.70
2023-05-21T16:34:48.906Z,49.73
2023-05-21T16:36:52.191Z,49.96
2023-05-21T16:38:55.468Z,50.37
2023-05-21T16:40:58.783Z,50.07
2023-05-21T16:43:03.114Z,50.45
2023-05-21T16:45:07.495Z,50.27
2023-05-21T16:47:12.120Z,50.62
2023-05-21T16:49:15.502Z,50.63
2023-05-21T16:51:18.886Z,50.39
2023-05-21T16:53:22.418Z,50.37
2023-05-21T16:55:25.791Z,50.47
2023-05-21T16:57:29.067Z,50.59
2023-05-21T16:59:32.309Z,50.68
2023-05-21T17:01:35.788Z,51.21
2023-05-21T17:03:43.092Z,51.58
2023-05-21T17:05:46.651Z,51.69
2023-05-21T17:07:50.219Z,51.80
2023-05-21T17:09:53.875Z,51.79
2023-05-21T17:11:57.223Z,51.93
2023-05-21T17:14:00.468Z,52.18
2023-05-21T17:16:03.756Z,52.28
2023-05-21T17:18:07.152Z,52.54
2023-05-21T17:20:13.456Z,52.61
2023-05-21T17:22:16.786Z,52.73
2023-05-21T17:24:20.082Z,52.66
2023-05-21T17:26:23.389Z,53.15
2023-05-21T17:28:26.691Z,53.26
2023-05-21T17:30:30.284Z,53.10
2023-05-21T17:32:33.520Z,53.33
2023-05-21T17:34:37.210Z,53.34
2023-05-21T17:36:41.784Z,53.52
2023-05-21T17:38:45.125Z,53.67
2023-05-21T17:40:49.034Z,53.66
2023-05-21T17:42:52.445Z,54.00
2023-05-21T17:44:55.860Z,54.14
2023-05-21T17:46:59.171Z,54.14
2023-05-21T17:49:03.068Z,54.30
2023-05-21T17:51:06.336Z,54.40
2023-05-21T17:53:10.967Z,54.47
2023-05-21T17:55:14.467Z,54.42
2023-05-21T17:57:19.731Z,54.64
2023-05-21T17:59:23.005Z,54.70
2023-05-21T18:01:26.524Z,54.97
2023-05-21T18:03:29.831Z,55.26
2023-05-21T18:05:33.058Z,55.13
2023-05-21T18:07:36.326Z,55.23
2023-05-21T18:09:42.828Z,55.45
2023-05-21T18:11:46.107Z,55.51
2023-05-21T18:13:49.501Z,55.33
2023-05-21T18:15:52.853Z,55.48
2023-05-21T18:17:56.257Z,55.57
2023-05-21T18:19:59.517Z,55.95
2023-05-21T18:22:02.708Z,56.14
2023-05-21T18:24:07.424Z,56.22
2023-05-21T18:26:12.012Z,56.27
2023-05-21T18:28:15.263Z,56.53
2023-05-21T18:30:18.667Z,56.77
2023-05-21T18:32:22.075Z,57.09
2023-05-21T18:34:25.568Z,57.18
2023-05-21T18:36:29.272Z,57.68
2023-05-21T18:38:33.772Z,57.92
2023-05-21T18:40:37.410Z,58.27
2023-05-21T18:42:42.634Z,58.62
2023-05-21T18:44:46.544Z,58.75
2023-05-21T18:46:51.387Z,59.25
2023-05-21T18:48:54.672Z,59.20
2023-05-21T18:50:57.930Z,60.00
2023-05-21T18:53:01.158Z,60.09
2023-05-21T18:55:05.531Z,60.49
2023-05-21T18:57:08.734Z,60.64
2023-05-21T18:59:14.709Z,60.72
2023-05-21T19:01:18.369Z,61.14
2023-05-21T19:03:21.602Z,61.44
2023-05-21T19:05:24.902Z,61.82
2023-05-21T19:07:28.369Z,61.86
2023-05-21T19:09:31.611Z,62.26
2023-05-21T19:11:35.049Z,62.29
2023-05-21T19:13:38.304Z,62.52
2023-05-21T19:15:46.903Z,62.47
2023-05-21T19:17:50.211Z,63.00
2023-05-21T19:19:55.977Z,63.08
2023-05-21T19:21:59.660Z,63.18
2023-05-21T19:24:05.450Z,63.22
2023-05-21T19:26:09.193Z,63.67
2023-05-21T19:28:12.437Z,63.62
2023-05-21T19:30:15.775Z,63.94
2023-05-21T19:32:21.335Z,64.20
2023-05-21T19:34:24.734Z,64.39
2023-05-21T19:36:32.700Z,64.22
2023-05-21T19:38:48.142Z,64.64
2023-05-21T19:40:51.381Z,64.65
2023-05-21T19:42:54.695Z,64.88
2023-05-21T19:44:57.945Z,64.95
2023-05-21T19:47:01.812Z,65.10
2023-05-21T19:49:06.744Z,65.44
2023-05-21T19:51:10.014Z,65.57
2023-05-21T19:53:14.349Z,65.61
2023-05-21T19:55:20.377Z,66.05
2023-05-21T19:57:23.811Z,65.79
2023-05-21T19:59:27.345Z,66.37
2023-05-21T20:01:34.656Z,66.41
2023-05-21T20:03:38.376Z,66.55
2023-05-21T20:05:43.057Z,66.42
2023-05-21T20:07:53.788Z,66.90
2023-05-21T20:09:57.057Z,67.04
2023-05-21T20:12:00.613Z,66.94
2023-05-21T20:14:04.510Z,67.08
2023-05-21T20:16:07.765Z,66.96
2023-05-21T20:18:12.886Z,67.24
2023-05-21T20:20:16.863Z,67.37
2023-05-21T20:22:21.671Z,67.27
2023-05-21T20:24:24.972Z,67.20
2023-05-21T20:26:28.215Z,67.40
2023-05-21T20:28:31.516Z,67.53
2023-05-21T20:30:36.021Z,67.43
2023-05-21T20:32:39.675Z,67.79
2023-05-21T20:34:58.400Z,67.48
2023-05-21T20:37:06.074Z,67.88
2023-05-21T20:39:12.142Z,67.64
2023-05-21T20:41:15.372Z,68.05
2023-05-21T20:43:18.822Z,68.17
2023-05-21T20:45:22.339Z,67.90
2023-05-21T20:47:29.952Z,68.26
2023-05-21T20:49:34.284Z,68.20
2023-05-21T20:51:37.681Z,68.32
2023-05-21T20:53:41.519Z,68.48
2023-05-21T20:55:46.992Z,68.29
2023-05-21T20:57:50.853Z,68.66
2023-05-21T20:59:54.371Z,68.79
2023-05-21T21:01:57.700Z,68.37
2023-05-21T21:04:01.112Z,68.56
2023-05-21T21:06:06.519Z,68.68
2023-05-21T21:08:09.791Z,68.85
2023-05-21T21:10:13.149Z,68.86
2023-05-21T21:14:23.948Z,69.19
2023-05-21T21:16:27.194Z,69.21
2023-05-21T21:18:30.549Z,69.35
2023-05-21T21:20:33.758Z,69.26
2023-05-21T21:22:37.236Z,69.36
2023-05-21T21:24:40.576Z,69.54
2023-05-21T21:26:44.033Z,69.49
2023-05-21T21:28:48.688Z,69.49
2023-05-21T21:30:51.939Z,69.71
2023-05-21T21:32:55.225Z,69.83
2023-05-21T21:34:58.499Z,69.58
2023-05-21T21:37:01.883Z,69.50
2023-05-21T21:39:05.323Z,69.92
2023-05-21T21:41:08.718Z,69.56
2023-05-21T21:43:12.010Z,69.98
2023-05-21T21:45:16.828Z,69.91
2023-05-21T21:47:20.074Z,69.83
2023-05-21T21:49:23.375Z,69.98
2023-05-21T21:51:26.678Z,70.38
2023-05-21T21:53:29.976Z,70.37
2023-05-21T21:55:33.748Z,70.24
2023-05-21T21:57:37.082Z,70.25
2023-05-21T21:59:40.452Z,70.44
2023-05-21T22:01:45.311Z,70.42
2023-05-21T22:03:48.649Z,70.42
2023-05-21T22:05:51.868Z,70.26
2023-05-21T22:07:55.150Z,70.76
2023-05-21T22:09:58.375Z,70.85
2023-05-21T22:12:07.588Z,70.91
2023-05-21T22:14:11.682Z,70.99
2023-05-21T22:16:15.088Z,70.72
2023-05-21T22:18:31.933Z,70.68
2023-05-21T22:20:43.674Z,70.97
2023-05-21T22:22:47.259Z,70.86
2023-05-21T22:24:50.526Z,71.23
2023-05-21T22:26:53.900Z,71.25
2023-05-21T22:28:59.113Z,71.42
2023-05-21T22:31:02.529Z,71.08
2023-05-21T22:33:06.034Z,71.58
2023-05-21T22:35:12.605Z,71.63
2023-05-21T22:37:15.860Z,71.42
2023-05-21T22:39:19.358Z,71.70
2023-05-21T22:41:22.964Z,71.72
2023-05-21T22:43:26.696Z,71.65
2023-05-21T22:45:30.195Z,71.80
2023-05-21T22:47:33.483Z,71.97
2023-05-21T22:49:38.194Z,71.88
2023-05-21T22:51:44.997Z,71.91
2023-05-21T22:53:48.268Z,72.37
2023-05-21T22:55:51.608Z,72.38
2023-05-21T22:57:54.839Z,72.15
2023-05-21T22:59:58.096Z,72.26
2023-05-21T23:02:01.482Z,72.29
2023-05-21T23:04:04.760Z,72.79
2023-05-21T23:06:08.323Z,72.59
2023-05-21T23:08:12.954Z,72.99
2023-05-21T23:10:16.186Z,72.83
2023-05-21T23:12:19.429Z,72.73
2023-05-21T23:14:22.956Z,72.89
2023-05-21T23:16:26.603Z,73.20
2023-05-21T23:18:29.920Z,73.05
2023-05-21T23:20:33.794Z,73.29
2023-05-21T23:22:37.601Z,73.18
2023-05-21T23:24:42.334Z,73.04
2023-05-21T23:26:45.890Z,73.46
2023-05-21T23:28:49.246Z,73.34
2023-05-21T23:30:52.775Z,73.65
2023-05-21T23:32:56.250Z,73.72
2023-05-21T23:34:59.664Z,73.59
2023-05-21T23:37:03.052Z,73.81
2023-05-21T23:39:06.398Z,73.61
2023-05-21T23:41:11.175Z,73.92
2023-05-21T23:43:14.530Z,73.99
2023-05-21T23:45:18.351Z,74.13
2023-05-21T23:47:21.734Z,73.93
2023-05-21T23:49:25.128Z,74.00
2023-05-21T23:51:28.575Z,73.96
2023-05-21T23:53:31.957Z,74.10
2023-05-21T23:55:35.297Z,74.30
2023-05-21T23:57:40.087Z,74.12
2023-05-21T23:59:43.495Z,74.21
